Portada
METAR-TAF:

METAR-TAF

Aeropuertos :

Aeropuerto de Aviñón-Provenza

Aviñón, Francia

latitud: 43-54-26N, longitud: 004-54-07E, altitud: 38 m

Observación

El informe se hizo hace 28 minutos, a las 07:30 UTC
Viento 9 kt del norte-noroeste
Temperatura 25°C
Humedad 65%
Presión 1014 hPa
Visibilidad 10 km o más
sin nubes por debajo de 1500 m y sin presencia de cumulonimbus.

METAR: LFMV 140730Z AUTO 34009KT CAVOK 25/18 Q1014 NOSIG

Hora: 09:58 (07:58 UTC)

Pronóstico

El informe se hizo hace 5 horas y 58 minutos, a las 02:00 UTC
Pronóstico válido del 14 a las 03 UTC al 15 a las 03 UTC
Viento 8 kt del norte-noroeste
Visibilidad 10 km o más
sin nubes por debajo de 1500 m y sin presencia de cumulonimbus.
Temporalmente
del 14 a las 17 UTC al 14 a las 21 UTC
Viento 10 kt del oeste-suroeste

TAF: LFMV 140200Z 1403/1503 34008KT CAVOK TEMPO 1417/1421 24010KT

Observaciones y pronósticos meteorológicos de más de 4000 aeropuertos (mensajes METAR y TAF).

Los puntos amarillos y rojos representan las estaciones disponibles.

Ponga el ratón en el punto deseado para ver el nombre de la estación.

Haga clic para ver las observaciones y los pronósticos meteorológicos.

Para cambiar el mapa : haga clic en los botones verdes con una cruz de color negro para hacer un zoom, en el botón verde con un guión para alejar o en las flechas verdes para mapas adyacentes.


METAR-TAF: